createdAt,value
2023-01-28T00:01:19.338Z,1.10
2023-01-28T00:03:49.236Z,1.10
2023-01-28T00:06:16.650Z,1.20
2023-01-28T00:08:43.711Z,0.90
2023-01-28T00:11:11.679Z,0.80
2023-01-28T00:13:38.477Z,0.98
2023-01-28T00:16:07.519Z,1.00
2023-01-28T00:18:34.373Z,1.17
2023-01-28T00:21:06.614Z,0.80
2023-01-28T00:23:35.034Z,1.02
2023-01-28T00:26:02.711Z,0.90
2023-01-28T00:28:29.512Z,0.77
2023-01-28T00:30:56.977Z,1.02
2023-01-28T00:33:23.809Z,1.13
2023-01-28T00:36:01.047Z,1.05
2023-01-28T00:38:28.177Z,1.00
2023-01-28T00:40:54.932Z,1.00
2023-01-28T00:43:21.579Z,1.00
2023-01-28T00:45:50.328Z,1.10
2023-01-28T00:48:17.176Z,1.00
2023-01-28T00:50:45.589Z,1.00
2023-01-28T00:53:12.373Z,1.13
2023-01-28T00:55:39.241Z,0.90
2023-01-28T00:58:06.178Z,1.02
2023-01-28T01:00:32.859Z,1.00
2023-01-28T01:02:59.702Z,0.88
2023-01-28T01:05:26.417Z,1.00
2023-01-28T01:07:53.146Z,0.93
2023-01-28T01:10:20.933Z,1.00
2023-01-28T01:12:48.606Z,1.00
2023-01-28T01:15:16.142Z,1.00
2023-01-28T01:17:45.008Z,0.93
2023-01-28T01:20:16.944Z,1.35
2023-01-28T01:22:43.639Z,1.00
2023-01-28T01:25:10.670Z,0.90
2023-01-28T01:27:37.358Z,0.90
2023-01-28T01:30:04.447Z,1.10
2023-01-28T01:32:32.073Z,0.93
2023-01-28T01:34:58.739Z,1.00
2023-01-28T01:37:25.415Z,1.05
2023-01-28T01:39:53.312Z,1.00
2023-01-28T01:42:20.017Z,1.00
2023-01-28T01:44:59.750Z,0.77
2023-01-28T01:47:45.301Z,0.77
2023-01-28T01:50:18.182Z,0.80
2023-01-28T01:52:44.868Z,0.90
2023-01-28T01:55:14.849Z,0.90
2023-01-28T01:57:41.914Z,1.05
2023-01-28T02:00:09.316Z,1.00
2023-01-28T02:02:38.312Z,0.80
2023-01-28T02:05:05.658Z,0.80
2023-01-28T02:07:32.438Z,0.80
2023-01-28T02:09:59.206Z,0.82
2023-01-28T02:12:37.423Z,0.80
2023-01-28T02:15:18.037Z,0.90
2023-01-28T02:17:44.877Z,0.90
2023-01-28T02:20:18.444Z,1.10
2023-01-28T02:23:17.811Z,0.90
2023-01-28T02:26:08.772Z,0.75
2023-01-28T02:28:45.731Z,0.80
2023-01-28T02:31:23.316Z,1.10
2023-01-28T02:34:13.330Z,0.65
2023-01-28T02:37:04.877Z,0.80
2023-01-28T02:39:37.064Z,0.80
2023-01-28T02:42:09.651Z,1.00
2023-01-28T02:44:36.343Z,0.80
2023-01-28T02:47:21.678Z,0.93
2023-01-28T02:49:53.123Z,0.75
2023-01-28T02:53:07.877Z,0.77
2023-01-28T02:55:38.755Z,0.82
2023-01-28T02:58:44.110Z,0.90
2023-01-28T03:01:25.915Z,0.90
2023-01-28T03:03:56.776Z,0.88
2023-01-28T03:06:36.389Z,0.85
2023-01-28T03:09:22.847Z,0.82
2023-01-28T03:12:33.485Z,0.90
2023-01-28T03:15:32.281Z,0.90
2023-01-28T03:18:23.467Z,0.80
2023-01-28T03:21:28.284Z,0.90
2023-01-28T03:24:17.858Z,0.70
2023-01-28T03:27:07.614Z,0.80
2023-01-28T03:29:53.125Z,0.90
2023-01-28T03:32:38.480Z,0.80
2023-01-28T03:35:23.946Z,0.80
2023-01-28T03:37:50.664Z,0.70
2023-01-28T03:40:18.871Z,0.80
2023-01-28T03:42:45.600Z,0.80
2023-01-28T03:45:14.309Z,0.73
2023-01-28T03:47:41.228Z,0.90
2023-01-28T03:50:08.502Z,0.80
2023-01-28T03:52:35.299Z,0.77
2023-01-28T03:55:13.275Z,0.73
2023-01-28T03:57:40.219Z,0.82
2023-01-28T04:00:07.572Z,0.77
2023-01-28T04:02:35.500Z,0.70
2023-01-28T04:05:06.939Z,0.80
2023-01-28T04:07:33.824Z,0.70
2023-01-28T04:10:02.022Z,0.80
2023-01-28T04:12:28.721Z,0.60
2023-01-28T04:14:55.442Z,0.70
2023-01-28T04:17:22.159Z,0.80
2023-01-28T04:19:48.825Z,0.70
2023-01-28T04:22:15.550Z,0.75
2023-01-28T04:24:42.279Z,0.63
2023-01-28T04:27:09.033Z,0.60
2023-01-28T04:29:35.722Z,0.57
2023-01-28T04:32:03.343Z,0.75
2023-01-28T04:34:30.011Z,1.00
2023-01-28T04:36:56.728Z,0.70
2023-01-28T04:39:23.560Z,0.82
2023-01-28T04:41:50.220Z,0.77
2023-01-28T04:44:17.195Z,0.73
2023-01-28T04:46:43.893Z,1.05
2023-01-28T04:49:10.564Z,0.70
2023-01-28T04:51:37.227Z,0.90
2023-01-28T04:54:04.487Z,0.80
2023-01-28T04:56:31.293Z,0.70
2023-01-28T04:58:57.956Z,0.70
2023-01-28T05:01:25.147Z,0.70
2023-01-28T05:03:52.089Z,0.73
2023-01-28T05:06:18.797Z,0.77
2023-01-28T05:08:46.330Z,0.70
2023-01-28T05:11:13.444Z,0.60
2023-01-28T05:13:40.163Z,0.60
2023-01-28T05:16:07.230Z,0.75
2023-01-28T05:18:34.907Z,0.90
2023-01-28T05:21:01.586Z,0.60
2023-01-28T05:23:28.248Z,0.70
2023-01-28T05:25:54.915Z,0.60
2023-01-28T05:28:21.630Z,0.50
2023-01-28T05:30:48.462Z,0.65
2023-01-28T05:33:15.289Z,0.77
2023-01-28T05:35:42.887Z,0.70
2023-01-28T05:38:09.558Z,0.70
2023-01-28T05:40:37.282Z,0.68
2023-01-28T05:43:04.003Z,0.70
2023-01-28T05:45:30.747Z,0.60
2023-01-28T05:47:57.519Z,0.70
2023-01-28T05:50:24.191Z,0.50
2023-01-28T05:52:50.870Z,0.60
2023-01-28T05:55:20.516Z,0.70
2023-01-28T05:57:48.650Z,0.80
2023-01-28T06:00:16.522Z,1.00
2023-01-28T06:02:43.844Z,1.05
2023-01-28T06:05:10.940Z,1.00
2023-01-28T06:07:39.122Z,1.20
2023-01-28T06:10:07.813Z,1.00
2023-01-28T06:12:34.585Z,1.13
2023-01-28T06:15:01.253Z,1.50
2023-01-28T06:17:27.990Z,1.27
2023-01-28T06:19:54.730Z,0.93
2023-01-28T06:22:21.425Z,1.40
2023-01-28T06:24:48.180Z,1.42
2023-01-28T06:27:14.863Z,1.02
2023-01-28T06:29:41.652Z,1.00
2023-01-28T06:32:08.836Z,1.20
2023-01-28T06:34:36.672Z,0.90
2023-01-28T06:37:04.257Z,1.00
2023-01-28T06:39:33.963Z,0.82
2023-01-28T06:42:00.787Z,1.00
2023-01-28T06:44:27.511Z,1.00
2023-01-28T06:46:54.296Z,0.82
2023-01-28T06:49:21.957Z,1.00
2023-01-28T06:51:48.698Z,1.08
2023-01-28T06:54:15.563Z,0.90
2023-01-28T06:56:42.987Z,1.00
2023-01-28T06:59:09.729Z,0.80
2023-01-28T07:01:38.476Z,0.85
2023-01-28T07:04:07.879Z,1.00
2023-01-28T07:06:34.583Z,1.13
2023-01-28T07:09:01.634Z,1.00
2023-01-28T07:11:28.550Z,1.13
2023-01-28T07:13:55.521Z,1.00
2023-01-28T07:16:22.774Z,1.40
2023-01-28T07:18:51.005Z,1.85
2023-01-28T07:21:18.066Z,1.20
2023-01-28T07:23:45.054Z,1.30
2023-01-28T07:26:12.044Z,1.08
2023-01-28T07:28:39.994Z,1.52
2023-01-28T07:31:09.135Z,1.38
2023-01-28T07:33:36.888Z,1.30
2023-01-28T07:36:03.989Z,1.30
2023-01-28T07:38:30.743Z,1.05
2023-01-28T07:40:57.709Z,1.40
2023-01-28T07:43:24.709Z,1.63
2023-01-28T07:45:51.703Z,1.42
2023-01-28T07:48:18.614Z,1.30
2023-01-28T07:50:48.444Z,1.20
2023-01-28T07:53:15.240Z,1.13
2023-01-28T07:55:41.958Z,1.23
2023-01-28T07:58:10.866Z,1.30
2023-01-28T08:00:38.971Z,1.15
2023-01-28T08:03:08.468Z,1.10
2023-01-28T08:05:41.465Z,1.02
2023-01-28T08:08:09.414Z,1.08
2023-01-28T08:10:36.973Z,1.20
2023-01-28T08:13:04.127Z,0.93
2023-01-28T08:15:32.243Z,1.00
2023-01-28T08:18:00.839Z,1.05
2023-01-28T08:20:28.376Z,0.88
2023-01-28T08:23:04.377Z,0.80
2023-01-28T08:25:31.046Z,1.00
2023-01-28T08:27:57.755Z,1.00
2023-01-28T08:30:24.446Z,1.13
2023-01-28T08:32:51.138Z,1.00
2023-01-28T08:35:17.851Z,1.00
2023-01-28T08:37:44.594Z,0.95
2023-01-28T08:40:11.859Z,0.82
2023-01-28T08:42:39.014Z,1.10
2023-01-28T08:45:06.708Z,1.20
2023-01-28T08:47:33.518Z,0.82
2023-01-28T08:50:00.264Z,1.10
2023-01-28T08:52:26.951Z,1.20
2023-01-28T08:54:53.640Z,0.95
2023-01-28T08:57:20.358Z,1.20
2023-01-28T08:59:47.521Z,0.98
2023-01-28T09:02:29.400Z,1.00
2023-01-28T09:04:57.980Z,1.30
2023-01-28T09:07:24.642Z,1.02
2023-01-28T09:09:51.408Z,1.20
2023-01-28T09:12:19.186Z,1.00
2023-01-28T09:14:46.264Z,1.13
2023-01-28T09:17:13.264Z,1.02
2023-01-28T09:19:40.533Z,0.95
2023-01-28T09:22:08.972Z,0.95
2023-01-28T09:24:39.090Z,1.10
2023-01-28T09:27:06.431Z,1.65
2023-01-28T09:29:38.295Z,1.30
2023-01-28T09:32:08.137Z,1.00
2023-01-28T09:34:34.966Z,1.00
2023-01-28T09:37:01.713Z,1.23
2023-01-28T09:39:28.929Z,1.00
2023-01-28T09:42:21.754Z,0.73
2023-01-28T09:45:01.570Z,1.13
2023-01-28T09:47:38.926Z,1.10
2023-01-28T09:50:09.237Z,0.93
2023-01-28T09:52:38.011Z,1.10
2023-01-28T09:55:20.189Z,1.17
2023-01-28T09:57:52.359Z,0.90
2023-01-28T10:00:24.380Z,0.93
2023-01-28T10:03:07.291Z,1.20
2023-01-28T10:06:05.323Z,0.95
2023-01-28T10:08:59.024Z,1.02
2023-01-28T10:11:41.514Z,1.30
2023-01-28T10:14:24.086Z,1.25
2023-01-28T10:17:08.175Z,1.10
2023-01-28T10:19:38.962Z,1.10
2023-01-28T10:22:14.823Z,0.85
2023-01-28T10:24:44.666Z,1.20
2023-01-28T10:27:21.847Z,1.10
2023-01-28T10:29:50.142Z,0.90
2023-01-28T10:32:30.870Z,0.98
2023-01-28T10:35:01.894Z,0.90
2023-01-28T10:37:29.633Z,1.00
2023-01-28T10:39:57.928Z,0.95
2023-01-28T10:42:29.630Z,1.00
2023-01-28T10:45:30.136Z,1.10
2023-01-28T10:48:02.246Z,1.38
2023-01-28T10:50:30.178Z,1.10
2023-01-28T10:53:00.568Z,0.95
2023-01-28T10:55:31.746Z,0.98
2023-01-28T10:57:58.953Z,1.00
2023-01-28T11:00:27.234Z,0.98
2023-01-28T11:02:54.357Z,1.10
2023-01-28T11:05:22.258Z,1.00
2023-01-28T11:07:50.013Z,0.93
2023-01-28T11:10:29.379Z,1.02
2023-01-28T11:12:56.817Z,0.98
2023-01-28T11:15:23.480Z,1.23
2023-01-28T11:17:55.492Z,0.80
2023-01-28T11:20:27.061Z,1.15
2023-01-28T11:22:53.937Z,1.10
2023-01-28T11:25:33.630Z,1.60
2023-01-28T11:28:02.312Z,1.17
2023-01-28T11:30:34.450Z,1.50
2023-01-28T11:33:08.768Z,1.02
2023-01-28T11:35:36.534Z,1.30
2023-01-28T11:38:04.004Z,1.80
2023-01-28T11:40:31.276Z,1.17
2023-01-28T11:42:58.556Z,1.45
2023-01-28T11:45:48.783Z,1.50
2023-01-28T11:48:21.761Z,1.30
2023-01-28T11:50:59.013Z,1.05
2023-01-28T11:53:40.415Z,1.58
2023-01-28T11:56:23.793Z,1.45
2023-01-28T11:59:27.701Z,1.30
2023-01-28T12:01:54.367Z,1.60
2023-01-28T12:04:26.653Z,1.25
2023-01-28T12:07:15.574Z,1.48
2023-01-28T12:10:08.157Z,1.20
2023-01-28T12:13:12.302Z,1.17
2023-01-28T12:15:57.583Z,1.42
2023-01-28T12:18:46.438Z,1.30
2023-01-28T12:21:46.307Z,1.30
2023-01-28T12:24:47.019Z,1.40
2023-01-28T12:27:35.888Z,1.52
2023-01-28T12:30:26.669Z,1.08
2023-01-28T12:33:25.122Z,1.33
2023-01-28T12:36:07.922Z,1.30
2023-01-28T12:39:12.119Z,1.33
2023-01-28T12:41:44.023Z,1.33
2023-01-28T12:44:14.064Z,1.13
2023-01-28T12:47:14.987Z,1.10
2023-01-28T12:49:48.873Z,1.20
2023-01-28T12:52:16.535Z,0.82
2023-01-28T12:54:49.629Z,1.00
2023-01-28T12:57:34.758Z,1.10
2023-01-28T13:00:28.275Z,1.38
2023-01-28T13:03:16.170Z,1.02
2023-01-28T13:05:51.576Z,1.33
2023-01-28T13:08:24.560Z,1.30
2023-01-28T13:10:51.878Z,1.58
2023-01-28T13:13:39.580Z,1.05
2023-01-28T13:16:09.816Z,1.25
2023-01-28T13:18:47.204Z,1.17
2023-01-28T13:21:21.325Z,1.65
2023-01-28T13:23:49.170Z,1.58
2023-01-28T13:26:19.061Z,1.10
2023-01-28T13:28:49.950Z,1.25
2023-01-28T13:31:23.732Z,1.20
2023-01-28T13:33:56.517Z,1.33
2023-01-28T13:36:26.663Z,0.93
2023-01-28T13:39:15.605Z,1.10
2023-01-28T13:41:47.276Z,1.10
2023-01-28T13:44:26.023Z,1.00
2023-01-28T13:46:54.096Z,1.08
2023-01-28T13:49:32.711Z,0.90
2023-01-28T13:52:12.414Z,0.98
2023-01-28T13:54:41.381Z,0.88
2023-01-28T13:57:33.003Z,1.30
2023-01-28T14:00:21.197Z,2.13
2023-01-28T14:03:10.564Z,1.80
2023-01-28T14:05:46.516Z,1.40
2023-01-28T14:08:32.177Z,1.45
2023-01-28T14:11:32.417Z,1.40
2023-01-28T14:14:36.046Z,2.08
2023-01-28T14:17:33.613Z,1.65
2023-01-28T14:20:00.440Z,1.40
2023-01-28T14:22:27.186Z,1.48
2023-01-28T14:25:00.884Z,1.50
2023-01-28T14:27:38.609Z,1.45
2023-01-28T14:30:08.301Z,1.55
2023-01-28T14:32:34.994Z,2.50
2023-01-28T14:35:07.155Z,3.42
2023-01-28T14:37:33.879Z,3.03
2023-01-28T14:40:08.526Z,4.00
2023-01-28T14:42:41.330Z,4.05
2023-01-28T14:45:29.179Z,3.90
2023-01-28T14:48:12.292Z,3.55
2023-01-28T14:50:59.433Z,3.00
2023-01-28T14:54:02.479Z,3.40
2023-01-28T14:56:50.758Z,3.45
2023-01-28T14:59:21.373Z,4.85
2023-01-28T15:01:48.961Z,3.45
2023-01-28T15:04:29.325Z,4.90
2023-01-28T15:06:56.186Z,4.88
2023-01-28T15:09:23.170Z,4.43
2023-01-28T15:11:52.295Z,3.60
2023-01-28T15:14:37.235Z,4.03
2023-01-28T15:17:04.789Z,3.08
2023-01-28T15:19:33.523Z,3.97
2023-01-28T15:22:02.469Z,3.50
2023-01-28T15:24:29.343Z,3.40
2023-01-28T15:26:56.624Z,2.75
2023-01-28T15:29:33.715Z,2.97
2023-01-28T15:32:01.607Z,2.60
2023-01-28T15:34:30.485Z,2.25
2023-01-28T15:36:58.197Z,2.70
2023-01-28T15:39:26.393Z,2.67
2023-01-28T15:41:59.817Z,2.60
2023-01-28T15:44:34.464Z,2.40
2023-01-28T15:47:02.547Z,2.42
2023-01-28T15:49:33.151Z,2.25
2023-01-28T15:51:59.890Z,2.08
2023-01-28T15:54:26.631Z,2.22
2023-01-28T15:56:53.351Z,2.05
2023-01-28T15:59:28.058Z,1.75
2023-01-28T16:02:16.603Z,2.30
2023-01-28T16:04:44.255Z,1.95
2023-01-28T16:07:10.981Z,2.20
2023-01-28T16:09:37.726Z,2.03
2023-01-28T16:12:08.080Z,2.08
2023-01-28T16:14:46.481Z,2.05
2023-01-28T16:17:17.047Z,1.80
2023-01-28T16:19:47.090Z,1.83
2023-01-28T16:22:27.491Z,2.13
2023-01-28T16:24:54.299Z,2.35
2023-01-28T16:27:31.405Z,1.98
2023-01-28T16:29:58.187Z,2.45
2023-01-28T16:32:29.943Z,2.25
2023-01-28T16:34:56.687Z,2.25
2023-01-28T16:37:23.419Z,2.90
2023-01-28T16:39:50.089Z,1.90
2023-01-28T16:42:17.414Z,2.70
2023-01-28T16:44:45.714Z,1.95
2023-01-28T16:47:15.382Z,1.77
2023-01-28T16:49:42.212Z,2.50
2023-01-28T16:52:10.076Z,2.00
2023-01-28T16:54:36.823Z,2.00
2023-01-28T16:57:03.613Z,1.95
2023-01-28T16:59:30.330Z,2.03
2023-01-28T17:01:57.037Z,1.90
2023-01-28T17:04:23.761Z,1.85
2023-01-28T17:06:51.608Z,1.65
2023-01-28T17:09:19.299Z,1.60
2023-01-28T17:11:46.797Z,2.10
2023-01-28T17:14:14.059Z,1.75
2023-01-28T17:16:40.911Z,1.65
2023-01-28T17:19:07.761Z,1.70
2023-01-28T17:21:34.509Z,1.65
2023-01-28T17:24:01.699Z,1.38
2023-01-28T17:26:31.106Z,1.40
2023-01-28T17:28:57.761Z,1.60
2023-01-28T17:31:26.382Z,1.70
2023-01-28T17:33:54.542Z,1.80
2023-01-28T17:36:21.400Z,1.30
2023-01-28T17:38:50.024Z,1.58
2023-01-28T17:41:20.394Z,1.40
2023-01-28T17:43:51.613Z,1.50
2023-01-28T17:46:19.908Z,1.15
2023-01-28T17:48:46.786Z,0.95
2023-01-28T17:51:13.873Z,1.20
2023-01-28T17:53:40.578Z,1.10
2023-01-28T17:56:07.681Z,1.10
2023-01-28T17:58:34.371Z,1.30
2023-01-28T18:01:09.779Z,2.05
2023-01-28T18:03:36.879Z,1.38
2023-01-28T18:06:04.343Z,1.20
2023-01-28T18:08:31.090Z,1.55
2023-01-28T18:10:57.904Z,1.30
2023-01-28T18:13:24.692Z,1.15
2023-01-28T18:15:52.175Z,1.20
2023-01-28T18:18:18.870Z,1.55
2023-01-28T18:20:45.533Z,1.42
2023-01-28T18:23:12.203Z,1.00
2023-01-28T18:25:38.988Z,1.08
2023-01-28T18:28:05.962Z,1.20
2023-01-28T18:30:32.784Z,1.20
2023-01-28T18:32:59.536Z,1.45
2023-01-28T18:35:26.205Z,1.40
2023-01-28T18:37:54.535Z,1.48
2023-01-28T18:40:23.080Z,1.10
2023-01-28T18:42:49.736Z,1.30
2023-01-28T18:45:16.864Z,1.30
2023-01-28T18:47:43.827Z,1.80
2023-01-28T18:50:10.790Z,1.52
2023-01-28T18:52:37.540Z,1.38
2023-01-28T18:55:04.530Z,1.20
2023-01-28T18:57:31.196Z,1.27
2023-01-28T18:59:57.930Z,1.50
2023-01-28T19:02:25.117Z,1.58
2023-01-28T19:04:52.975Z,1.58
2023-01-28T19:07:19.700Z,1.10
2023-01-28T19:09:46.397Z,1.77
2023-01-28T19:12:13.063Z,1.85
2023-01-28T19:14:39.752Z,1.90
2023-01-28T19:17:06.414Z,2.38
2023-01-28T19:19:33.133Z,2.40
2023-01-28T19:21:59.852Z,2.00
2023-01-28T19:24:26.672Z,2.33
2023-01-28T19:26:54.522Z,1.65
2023-01-28T19:29:21.335Z,1.85
2023-01-28T19:31:49.327Z,2.08
2023-01-28T19:34:16.464Z,4.60
2023-01-28T19:36:43.183Z,2.40
2023-01-28T19:39:11.550Z,3.03
2023-01-28T19:41:38.297Z,2.22
2023-01-28T19:44:05.545Z,1.80
2023-01-28T19:46:32.521Z,1.83
2023-01-28T19:48:59.255Z,1.90
2023-01-28T19:51:26.061Z,1.67
2023-01-28T19:53:54.666Z,1.90
2023-01-28T19:56:23.405Z,1.90
2023-01-28T19:58:50.722Z,1.77
2023-01-28T20:01:19.313Z,1.70
2023-01-28T20:03:49.270Z,1.98
2023-01-28T20:06:16.974Z,2.38
2023-01-28T20:08:43.827Z,2.10
2023-01-28T20:11:14.854Z,2.22
2023-01-28T20:13:43.274Z,1.70
2023-01-28T20:16:14.516Z,1.90
2023-01-28T20:18:41.203Z,2.13
2023-01-28T20:21:07.938Z,1.90
2023-01-28T20:23:34.609Z,2.45
2023-01-28T20:26:01.438Z,2.08
2023-01-28T20:28:28.217Z,2.58
2023-01-28T20:30:55.712Z,2.47
2023-01-28T20:33:22.661Z,2.90
2023-01-28T20:35:49.367Z,2.28
2023-01-28T20:38:16.090Z,1.77
2023-01-28T20:40:43.910Z,2.15
2023-01-28T20:43:10.611Z,1.88
2023-01-28T20:45:37.320Z,2.10
2023-01-28T20:48:04.137Z,2.33
2023-01-28T20:50:30.823Z,1.92
2023-01-28T20:52:58.028Z,2.08
2023-01-28T20:55:25.960Z,2.40
2023-01-28T20:57:52.740Z,2.30
2023-01-28T21:00:19.880Z,1.85
2023-01-28T21:02:46.753Z,2.25
2023-01-28T21:05:13.529Z,1.50
2023-01-28T21:07:40.462Z,1.60
2023-01-28T21:10:07.461Z,1.80
2023-01-28T21:12:34.686Z,1.77
2023-01-28T21:15:01.441Z,1.85
2023-01-28T21:17:28.151Z,1.80
2023-01-28T21:19:55.925Z,1.63
2023-01-28T21:22:22.688Z,1.88
2023-01-28T21:24:51.123Z,1.80
2023-01-28T21:27:17.876Z,1.67
2023-01-28T21:29:44.580Z,1.52
2023-01-28T21:32:11.329Z,1.77
2023-01-28T21:34:38.151Z,1.50
2023-01-28T21:37:04.901Z,1.50
2023-01-28T21:39:31.625Z,1.67
2023-01-28T21:41:58.339Z,1.80
2023-01-28T21:44:27.238Z,1.35
2023-01-28T21:46:55.239Z,1.48
2023-01-28T21:49:22.564Z,1.45
2023-01-28T21:51:49.611Z,1.73
2023-01-28T21:54:18.472Z,1.55
2023-01-28T21:56:46.299Z,1.40
2023-01-28T21:59:28.762Z,1.58
2023-01-28T22:02:06.581Z,1.63
2023-01-28T22:04:35.602Z,1.30
2023-01-28T22:07:03.169Z,1.67
2023-01-28T22:09:30.244Z,1.65
2023-01-28T22:11:58.882Z,1.58
2023-01-28T22:14:26.837Z,1.45
2023-01-28T22:16:54.556Z,1.25
2023-01-28T22:19:21.689Z,1.45
2023-01-28T22:21:48.795Z,1.27
2023-01-28T22:24:24.522Z,1.45
2023-01-28T22:26:52.143Z,1.30
2023-01-28T22:29:19.797Z,1.33
2023-01-28T22:31:50.624Z,1.20
2023-01-28T22:34:17.942Z,1.17
2023-01-28T22:36:44.968Z,1.33
2023-01-28T22:39:13.685Z,1.10
2023-01-28T22:41:40.989Z,1.27
2023-01-28T22:44:07.731Z,1.38
2023-01-28T22:46:34.648Z,1.30
2023-01-28T22:49:01.604Z,1.08
2023-01-28T22:51:31.441Z,1.30
2023-01-28T22:53:58.728Z,1.13
2023-01-28T22:56:26.518Z,1.10
2023-01-28T22:59:01.600Z,1.10
2023-01-28T23:01:29.086Z,1.00
2023-01-28T23:03:56.296Z,1.10
2023-01-28T23:06:23.610Z,1.02
2023-01-28T23:08:51.655Z,1.00
2023-01-28T23:11:28.137Z,0.90
2023-01-28T23:14:20.281Z,0.90
2023-01-28T23:17:05.619Z,1.10
2023-01-28T23:19:51.073Z,0.80
2023-01-28T23:22:40.271Z,1.35
2023-01-28T23:25:07.281Z,1.00
2023-01-28T23:27:34.419Z,1.00
2023-01-28T23:30:02.675Z,1.20
2023-01-28T23:32:29.376Z,1.00
2023-01-28T23:34:56.830Z,0.80
2023-01-28T23:37:23.605Z,1.10
2023-01-28T23:39:50.274Z,1.00
2023-01-28T23:42:18.638Z,0.90
2023-01-28T23:44:45.540Z,1.20
2023-01-28T23:47:12.356Z,1.10
2023-01-28T23:49:39.158Z,1.20
2023-01-28T23:52:06.013Z,1.00
2023-01-28T23:54:33.687Z,0.90
2023-01-28T23:57:00.676Z,1.00
2023-01-28T23:59:27.435Z,1.00
